Polaris — JD2797 — position and weather

sailwx.info

Track history (hours):
 
Tides and Currents Weather Stations Pressure Air Temp Water Temp Dewpoint Dewpoint Depression Visibility Wind Speed Wind Dir Waves Ship Positions

Polaris

Last reported at 2016-Jun-24 08:11 UTC. Time now 2016-Jun-26 08:22 UTC.
Position N 35°19' E 139°38'.

Length 30 m; draft 2.6 m.

Type: Pilot. MMSI: 431000764.

Date/timePositionNaut miles runAvg speedWind from/ knotsBaromVisibWave heightAir tempDewpointWater temp
2016-Jun-24 08:11N 35°19' E 139°38'6 8.8
2016-Jun-24 07:33N 35°18' E 139°45'4 3.3
2016-Jun-24 06:26N 35°14' E 139°46'  
2016-Jun-21 12:20N 35°19' E 139°38'911.1
2016-Jun-21 11:33N 35°13' E 139°46'1212.6
2016-Jun-21 10:34N 35°25' E 139°44'4 4.0
2016-Jun-21 09:33N 35°21' E 139°43'4 4.3
2016-Jun-21 08:33N 35°19' E 139°38'0 0.0
2016-Jun-21 07:33N 35°19' E 139°38'0 0.0
2016-Jun-21 06:31N 35°19' E 139°38'0 0.0
2016-Jun-21 04:29N 35°19' E 139°38'0 0.0
2016-Jun-21 03:33N 35°19' E 139°38'0 0.0
2016-Jun-21 02:31N 35°19' E 139°38'0 0.0
2016-Jun-21 01:33N 35°19' E 139°38'0 0.0
2016-Jun-21 00:32N 35°19' E 139°38'0 0.0
2016-Jun-20 23:32N 35°19' E 139°38'8 8.0
2016-Jun-20 22:32N 35°14' E 139°46'1111.7
2016-Jun-20 21:34N 35°25' E 139°44'4 4.0
2016-Jun-20 20:33N 35°21' E 139°43'5 0.1
2016-Jun-19 08:34N 35°18' E 139°39'6 5.7
2016-Jun-19 07:33N 35°21' E 139°45'1111.1
2016-Jun-19 06:33N 35°10' E 139°47'10 9.9
2016-Jun-19 05:33N 35°19' E 139°41'2 2.0
2016-Jun-19 04:30N 35°19' E 139°38'0 0.0
2016-Jun-19 03:33N 35°19' E 139°38'0 0.0
2016-Jun-19 02:31N 35°19' E 139°38'0 0.0
2016-Jun-19 01:30N 35°19' E 139°38'0 0.0
2016-Jun-19 00:33N 35°19' E 139°38'0 0.0
2016-Jun-18 23:32N 35°19' E 139°38'5 5.4
2016-Jun-18 22:34N 35°17' E 139°44'4 3.6
2016-Jun-18 21:33N 35°20' E 139°42'3 2.8
2016-Jun-18 20:34N 35°23' E 139°43'6 0.5
2016-Jun-18 08:13N 35°19' E 139°38'6 9.8
2016-Jun-18 07:33N 35°23' E 139°44'9 8.4
2016-Jun-18 06:32N 35°15' E 139°47'1 1.2
2016-Jun-18 05:31N 35°14' E 139°46'8 0.2
2016-Jun-16 08:14N 35°19' E 139°38'812.3
2016-Jun-16 07:33N 35°13' E 139°46'1010.4
2016-Jun-16 06:34N 35°23' E 139°43'4 4.3
2016-Jun-16 05:33N 35°19' E 139°41'2 1.9
2016-Jun-16 04:33N 35°19' E 139°38'0 0.0
2016-Jun-16 03:33N 35°19' E 139°38'0 0.0
2016-Jun-16 02:33N 35°19' E 139°38'0 0.0
2016-Jun-16 01:31N 35°19' E 139°38'5 5.1
2016-Jun-16 00:34N 35°23' E 139°39'1 1.2
2016-Jun-15 23:33N 35°24' E 139°38'0 0.1
2016-Jun-15 22:33N 35°24' E 139°38'5 5.2
2016-Jun-15 21:31N 35°19' E 139°38'0 0.0
2016-Jun-15 20:32N 35°19' E 139°38'0 0.0
2016-Jun-15 19:33N 35°19' E 139°38'0 0.0
2016-Jun-15 18:32N 35°19' E 139°38'0 0.0
2016-Jun-15 17:32N 35°19' E 139°38'0 0.0
2016-Jun-15 16:32N 35°19' E 139°38'0 0.0
2016-Jun-15 15:33N 35°19' E 139°38'0 0.0
2016-Jun-15 14:32N 35°19' E 139°38'0 0.0
2016-Jun-15 13:33N 35°19' E 139°38'0 0.0
2016-Jun-15 12:33N 35°19' E 139°38'0 0.0
2016-Jun-15 11:33N 35°19' E 139°38'0 0.0
2016-Jun-15 10:33N 35°19' E 139°38'0 0.0
2016-Jun-15 09:28N 35°19' E 139°38'0 0.0
2016-Jun-15 08:32N 35°19' E 139°38'0 0.0
2016-Jun-15 07:33N 35°19' E 139°38'5 4.8
2016-Jun-15 06:33N 35°19' E 139°44'5 5.1
2016-Jun-15 05:29N 35°13' E 139°46'8 8.2
2016-Jun-15 04:30N 35°19' E 139°38'0 0.0
2016-Jun-15 03:34N 35°19' E 139°38'0 0.0
2016-Jun-15 02:32N 35°19' E 139°38'0 0.0
2016-Jun-15 01:32N 35°19' E 139°38'0 0.0
2016-Jun-15 00:34N 35°19' E 139°38'0 0.0
2016-Jun-14 23:33N 35°19' E 139°38'0 0.0
2016-Jun-14 22:34N 35°19' E 139°38'1 0.9
2016-Jun-14 21:33N 35°19' E 139°39'4 4.3
2016-Jun-14 20:33N 35°20' E 139°44'1010.2
2016-Jun-14 19:33N 35°10' E 139°47'1010.3
2016-Jun-14 18:33N 35°19' E 139°40'  
Track history (hours):
 
Tides and Currents Weather Stations Pressure Air Temp Water Temp Dewpoint Dewpoint Depression Visibility Wind Speed Wind Dir Waves Ship Positions

Polaris

Last reported at 2016-Jun-24 08:11 UTC. Time now 2016-Jun-26 08:22 UTC.
Position N 35°19' E 139°38'.

Length 30 m; draft 2.6 m.

Type: Pilot. MMSI: 431000764.

Date/timePositionNaut miles runAvg speedWind from/ knotsBaromVisibWave heightAir tempDewpointWater temp
2016-Jun-24 08:11N 35°19' E 139°38'6 8.8
2016-Jun-24 07:33N 35°18' E 139°45'4 3.3
2016-Jun-24 06:26N 35°14' E 139°46'  
2016-Jun-21 12:20N 35°19' E 139°38'911.1
2016-Jun-21 11:33N 35°13' E 139°46'1212.6
2016-Jun-21 10:34N 35°25' E 139°44'4 4.0
2016-Jun-21 09:33N 35°21' E 139°43'4 4.3
2016-Jun-21 08:33N 35°19' E 139°38'0 0.0
2016-Jun-21 07:33N 35°19' E 139°38'0 0.0
2016-Jun-21 06:31N 35°19' E 139°38'0 0.0
2016-Jun-21 04:29N 35°19' E 139°38'0 0.0
2016-Jun-21 03:33N 35°19' E 139°38'0 0.0
2016-Jun-21 02:31N 35°19' E 139°38'0 0.0
2016-Jun-21 01:33N 35°19' E 139°38'0 0.0
2016-Jun-21 00:32N 35°19' E 139°38'0 0.0
2016-Jun-20 23:32N 35°19' E 139°38'8 8.0
2016-Jun-20 22:32N 35°14' E 139°46'1111.7
2016-Jun-20 21:34N 35°25' E 139°44'4 4.0
2016-Jun-20 20:33N 35°21' E 139°43'5 0.1
2016-Jun-19 08:34N 35°18' E 139°39'6 5.7
2016-Jun-19 07:33N 35°21' E 139°45'1111.1
2016-Jun-19 06:33N 35°10' E 139°47'10 9.9
2016-Jun-19 05:33N 35°19' E 139°41'2 2.0
2016-Jun-19 04:30N 35°19' E 139°38'0 0.0
2016-Jun-19 03:33N 35°19' E 139°38'0 0.0
2016-Jun-19 02:31N 35°19' E 139°38'0 0.0
2016-Jun-19 01:30N 35°19' E 139°38'0 0.0
2016-Jun-19 00:33N 35°19' E 139°38'0 0.0
2016-Jun-18 23:32N 35°19' E 139°38'5 5.4
2016-Jun-18 22:34N 35°17' E 139°44'4 3.6
2016-Jun-18 21:33N 35°20' E 139°42'3 2.8
2016-Jun-18 20:34N 35°23' E 139°43'6 0.5
2016-Jun-18 08:13N 35°19' E 139°38'6 9.8
2016-Jun-18 07:33N 35°23' E 139°44'9 8.4
2016-Jun-18 06:32N 35°15' E 139°47'1 1.2
2016-Jun-18 05:31N 35°14' E 139°46'8 0.2
2016-Jun-16 08:14N 35°19' E 139°38'812.3
2016-Jun-16 07:33N 35°13' E 139°46'1010.4
2016-Jun-16 06:34N 35°23' E 139°43'4 4.3
2016-Jun-16 05:33N 35°19' E 139°41'2 1.9
2016-Jun-16 04:33N 35°19' E 139°38'0 0.0
2016-Jun-16 03:33N 35°19' E 139°38'0 0.0
2016-Jun-16 02:33N 35°19' E 139°38'0 0.0
2016-Jun-16 01:31N 35°19' E 139°38'5 5.1
2016-Jun-16 00:34N 35°23' E 139°39'1 1.2
2016-Jun-15 23:33N 35°24' E 139°38'0 0.1
2016-Jun-15 22:33N 35°24' E 139°38'5 5.2
2016-Jun-15 21:31N 35°19' E 139°38'0 0.0
2016-Jun-15 20:32N 35°19' E 139°38'0 0.0
2016-Jun-15 19:33N 35°19' E 139°38'0 0.0
2016-Jun-15 18:32N 35°19' E 139°38'0 0.0
2016-Jun-15 17:32N 35°19' E 139°38'0 0.0
2016-Jun-15 16:32N 35°19' E 139°38'0 0.0
2016-Jun-15 15:33N 35°19' E 139°38'0 0.0
2016-Jun-15 14:32N 35°19' E 139°38'0 0.0
2016-Jun-15 13:33N 35°19' E 139°38'0 0.0
2016-Jun-15 12:33N 35°19' E 139°38'0 0.0
2016-Jun-15 11:33N 35°19' E 139°38'0 0.0
2016-Jun-15 10:33N 35°19' E 139°38'0 0.0
2016-Jun-15 09:28N 35°19' E 139°38'0 0.0
2016-Jun-15 08:32N 35°19' E 139°38'0 0.0
2016-Jun-15 07:33N 35°19' E 139°38'5 4.8
2016-Jun-15 06:33N 35°19' E 139°44'5 5.1
2016-Jun-15 05:29N 35°13' E 139°46'8 8.2
2016-Jun-15 04:30N 35°19' E 139°38'0 0.0
2016-Jun-15 03:34N 35°19' E 139°38'0 0.0
2016-Jun-15 02:32N 35°19' E 139°38'0 0.0
2016-Jun-15 01:32N 35°19' E 139°38'0 0.0
2016-Jun-15 00:34N 35°19' E 139°38'0 0.0
2016-Jun-14 23:33N 35°19' E 139°38'0 0.0
2016-Jun-14 22:34N 35°19' E 139°38'1 0.9
2016-Jun-14 21:33N 35°19' E 139°39'4 4.3
2016-Jun-14 20:33N 35°20' E 139°44'1010.2
2016-Jun-14 19:33N 35°10' E 139°47'1010.3
2016-Jun-14 18:33N 35°19' E 139°40'  

Dump ship's entire track history